Linz, Austria
Current Conditions -  °F | °C
As of 4:50 PM on Sunday 23 Nov 2014 (Local Time) from LOWL Reporting Station
Broken Clouds Broken Clouds  
Wind Chill: 37°   Ceiling: 1200
Heat Index: 43°   Visibility: 5mi
Dew Point: 37°   Wind: 10mph
Humidity: 81%   Direction: 100°E
Pressure: 30.27"   Gusts: NA
Location:  48.31°N, 14.29°E
Report Text: LOWL 231450Z 10009KT 8000 FEW010 BKN012 06/03 Q1025 TEMPO SCT012 BKN015
Loading
Personal Weather Stations






























Interactive Weather Map New forecast layout! Learn more

10-Day Weather Forecast

Advertisements
Track Severe Weather on mobile